createdAt,value
2023-07-12T00:08:12.373Z,3.15
2023-07-12T00:18:17.568Z,1.90
2023-07-12T00:28:29.292Z,1.48
2023-07-12T00:38:31.684Z,1.10
2023-07-12T00:48:36.119Z,1.92
2023-07-12T00:58:47.943Z,1.65
2023-07-12T01:08:51.547Z,1.33
2023-07-12T01:18:54.027Z,1.23
2023-07-12T01:28:58.810Z,1.02
2023-07-12T01:39:03.659Z,1.13
2023-07-12T01:49:06.152Z,1.25
2023-07-12T01:59:09.021Z,1.10
2023-07-12T02:09:11.519Z,1.08
2023-07-12T02:19:14.006Z,0.68
2023-07-12T02:29:19.174Z,0.80
2023-07-12T02:39:22.112Z,1.08
2023-07-12T02:49:24.801Z,1.20
2023-07-12T02:59:28.173Z,1.30
2023-07-12T03:09:30.800Z,1.02
2023-07-12T03:19:36.761Z,1.45
2023-07-12T03:29:39.140Z,1.52
2023-07-12T03:39:41.612Z,1.45
2023-07-12T03:49:44.037Z,0.90
2023-07-12T03:59:46.488Z,1.42
2023-07-12T04:09:49.130Z,1.50
2023-07-12T04:19:51.604Z,2.30
2023-07-12T04:29:54.187Z,1.73
2023-07-12T04:39:56.755Z,1.60
2023-07-12T04:49:59.247Z,0.90
2023-07-12T05:00:01.755Z,1.20
2023-07-12T05:10:05.114Z,1.00
2023-07-12T05:20:10.591Z,0.82
2023-07-12T05:30:13.368Z,0.90
2023-07-12T05:40:15.984Z,0.60
2023-07-12T05:50:20.127Z,0.63
2023-07-12T06:00:22.714Z,0.50
2023-07-12T06:10:25.245Z,0.38
2023-07-12T06:20:27.714Z,0.63
2023-07-12T06:30:30.291Z,0.50
2023-07-12T06:40:32.987Z,0.80
2023-07-12T06:50:35.605Z,0.30
2023-07-12T07:00:42.674Z,0.93
2023-07-12T07:10:49.631Z,0.93
2023-07-12T07:20:53.579Z,1.88
2023-07-12T07:30:57.615Z,1.48
2023-07-12T07:41:00.225Z,1.48
2023-07-12T07:51:04.605Z,1.95
2023-07-12T08:01:09.510Z,2.58
2023-07-12T08:11:12.533Z,1.90
2023-07-12T08:21:15.145Z,1.20
2023-07-12T08:31:17.663Z,0.82
2023-07-12T08:41:22.652Z,0.85
2023-07-12T08:51:33.954Z,0.70
2023-07-12T09:01:45.754Z,1.05
2023-07-12T09:11:48.246Z,0.95
2023-07-12T09:21:59.194Z,0.88
2023-07-12T09:32:02.707Z,1.48
2023-07-12T09:42:05.782Z,1.40
2023-07-12T09:52:34.703Z,1.10
2023-07-12T10:03:00.474Z,1.40
2023-07-12T10:13:21.591Z,1.20
2023-07-12T10:23:43.919Z,1.40
2023-07-12T10:33:48.929Z,1.10
2023-07-12T10:44:04.490Z,1.10
2023-07-12T10:54:39.349Z,0.70
2023-07-12T11:04:49.767Z,0.77
2023-07-12T11:14:53.726Z,1.23
2023-07-12T11:25:22.646Z,0.60
2023-07-12T11:35:44.245Z,1.15
2023-07-12T11:45:47.025Z,0.75
2023-07-12T11:55:49.510Z,0.63
2023-07-12T12:05:53.760Z,0.60
2023-07-12T12:16:06.347Z,0.90
2023-07-12T12:26:30.720Z,0.88
2023-07-12T12:36:34.620Z,0.80
2023-07-12T12:58:08.534Z,0.60
2023-07-12T13:07:07.934Z,0.80
2023-07-12T13:18:00.472Z,0.40
2023-07-12T13:27:56.384Z,0.50
2023-07-12T13:48:11.866Z,0.38
2023-07-12T13:58:14.751Z,0.40
2023-07-12T14:18:22.960Z,0.50
2023-07-12T14:28:25.463Z,0.88
2023-07-12T14:38:28.044Z,0.43
2023-07-12T14:48:30.651Z,0.50
2023-07-12T14:58:33.193Z,0.35
2023-07-12T15:08:35.702Z,0.40
2023-07-12T15:18:38.119Z,0.60
2023-07-12T15:28:42.616Z,0.30
2023-07-12T15:38:48.977Z,0.50
2023-07-12T15:48:51.423Z,0.32
2023-07-12T15:58:54.152Z,0.50
2023-07-12T16:08:56.594Z,0.45
2023-07-12T16:19:07.021Z,0.95
2023-07-12T16:29:09.866Z,0.50
2023-07-12T16:39:14.036Z,0.77
2023-07-12T16:49:17.211Z,1.17
2023-07-12T16:59:20.095Z,0.52
2023-07-12T17:09:25.197Z,0.82
2023-07-12T17:19:28.766Z,0.77
2023-07-12T17:29:31.234Z,0.80
2023-07-12T17:39:34.161Z,1.40
2023-07-12T17:49:39.161Z,1.10
2023-07-12T17:59:45.445Z,1.30
2023-07-12T18:09:49.085Z,0.88
2023-07-12T18:19:53.770Z,1.17
2023-07-12T18:29:56.804Z,1.08
2023-07-12T18:39:59.317Z,1.00
2023-07-12T18:50:02.925Z,0.80
2023-07-12T19:00:08.865Z,1.55
2023-07-12T19:10:15.502Z,0.98
2023-07-12T19:20:19.312Z,0.93
2023-07-12T19:30:28.074Z,1.42
2023-07-12T19:40:31.756Z,1.20
2023-07-12T19:50:34.919Z,1.40
2023-07-12T20:00:37.437Z,0.80
2023-07-12T20:10:39.859Z,1.25
2023-07-12T20:20:42.997Z,0.80
2023-07-12T20:30:47.183Z,0.88
2023-07-12T20:40:49.707Z,0.95
2023-07-12T20:50:52.152Z,0.80
2023-07-12T21:01:08.482Z,1.38
2023-07-12T21:11:11.693Z,1.05
2023-07-12T21:21:14.437Z,1.23
2023-07-12T21:31:19.954Z,1.70
2023-07-12T21:41:22.834Z,1.70
2023-07-12T21:51:25.951Z,1.20
2023-07-12T22:01:28.597Z,1.35
2023-07-12T22:11:31.228Z,1.55
2023-07-12T22:21:33.844Z,1.48
2023-07-12T22:31:36.713Z,1.52
2023-07-12T22:41:39.431Z,1.30
2023-07-12T22:51:42.176Z,1.23
2023-07-12T23:01:47.608Z,1.23
2023-07-12T23:11:50.415Z,1.00
2023-07-12T23:21:52.915Z,1.00
2023-07-12T23:31:55.905Z,1.17
2023-07-12T23:42:03.448Z,0.93
2023-07-12T23:52:07.010Z,1.10
